Tiempo atmosférico en la estación meteorológica de Becerreá, Lugo (1080 m.)



Fecha
DESCASC
Temp. máxima en grados centígrados (hora)
DESCASC
Temp. mínima en grados centígrados (hora)
DESCASC
Temp. media en grados centígrados
DESCASC
Racha de viento máxima en m/sg (hora)
DESCASC
Velocidad máxima media en intervalos de 10 minutos(hora)
DESCASC
Precipitaciones diarias en mm
DESCASC
Precipitaciones de 00:00 a 06:00 en mm
DESCASC
Precipitaciones de 06:00 a 12:00 en mm
DESCASC
Precipitaciones de 12:00 a 18:00 en mm
DESCASC
Precipitaciones de 18:00 a 24:00 en mm
DESCASC
22-01-2020 6.8 (12:20) 0.8 (00:00) 3.8 13.33 (05:30) 5.28 (07:10) 0 0 0 0 0
21-01-2020 3.3 (12:20) -1.8 (02:00) 0.8 15.28 (19:20) 6.11 (19:10) 0 0 0 0 0
20-01-2020 1.8 (13:20) -1.9 (20:20) -0.1 18.06 (02:10) 7.5 (10:30) 0 0 0 0 0
19-01-2020 3.4 (12:40) -0.8 (-00:0) 1.3 18.06 (08:00) 7.78 (08:00) 1 1 0 0 0
18-01-2020 8.6 (12:20) 1.1 (00:00) 4.9 18.33 (14:20) 7.22 (14:20) 25.6 0.2 0 17.8 7.6
17-01-2020 4 (01:10) 0.8 (00:00) 2.4 11.67 (00:10) 4.72 (00:50) 5.2 3 2.2 0 0
16-01-2020 10.2 (12:00) 3.6 (00:00) 6.9 19.72 (10:10) 7.78 (13:50) 14.6 0.6 0 2.6 11.4
15-01-2020 9 (23:59) 4.6 (00:00) 6.8 17.22 (01:30) 8.33 (04:10) 14 4 9.6 0.4 0
14-01-2020 7.3 (15:10) 5 (00:00) 6.2 17.5 (22:20) 7.5 (01:00) 0 0 0 0 0
13-01-2020 7.6 (14:20) 4.1 (00:00) 5.8 16.39 (22:40) 7.5 (22:20) 0 0 0 0 0
12-01-2020 9.6 (13:10) 1.7 (00:00) 5.7 6.11 (03:10) 4.17 (02:00) 0 0 0 0 0
11-01-2020 8.2 (14:40) 2 (00:00) 5.1 7.78 (18:40) 6.11 (18:40) 0 0 0 0 0
10-01-2020 3.6 (14:10) 0.6 (00:00) 2.1 10 (00:20) 5 (00:20) 0.6 0.4 0.2 0 0
09-01-2020 9 (12:10) 1.7 (00:00) 5.4 17.5 (13:30) 6.67 (13:30) 5.6 0 0 4.4 1.2
08-01-2020 11.9 (14:00) 6.4 (00:00) 9.1 5.83 (16:50) 3.89 (17:00) 0 0 0 0 0
07-01-2020 13.7 (12:40) 5.3 (00:00) 9.5 5.83 (17:20) 4.44 (17:20) 0 0 0 0 0
06-01-2020 9.8 (16:10) 3 (00:00) 6.4 7.5 (10:40) 5.28 (01:20) 0 0 0 0 0
05-01-2020 13 (14:30) 4.2 (00:00) 8.6 8.89 (13:50) 4.72 (00:50) 0 0 0 0 0
04-01-2020 6.6 (23:59) 1.1 (00:00) 3.8 7.22 (23:59) 4.17 (22:50) 0 0 0 0 0
03-01-2020 6.5 (10:40) 2.8 (00:00) 4.6 7.78 (09:20) 3.61 (02:00) 2.6 0.2 2.2 0.2 0
02-01-2020 12.5 (13:00) 2.7 (00:00) 7.6 12.5 (18:10) 7.22 (18:10) 0 0 0 0 0
01-01-2020 14 (11:50) 6.8 (00:00) 10.4 4.72 (13:10) 3.89 (03:30) 0 0 0 0 0
31-12-2019 13.2 (13:10) 6.7 (00:00) 9.9 4.17 (06:10) 3.61 (06:10) 0 0 0 0 0
30-12-2019 -- (--) -- (--) -- -- (--) -- (--) -- 0 0 -- 0
29-12-2019 19.3 (13:10) 11 (00:00) 15.1 3.61 (00:10) 2.22 (00:10) 0 0 0 0 0
28-12-2019 18.2 (13:10) 10.8 (00:00) 14.5 8.61 (07:50) 5.28 (07:50) 0 0 0 0 0
27-12-2019 13.7 (14:20) 6.3 (00:00) 10 8.33 (16:10) 5 (18:00) 0 0 0 0 0
26-12-2019 8 (15:30) 2.7 (00:00) 5.4 10.83 (00:10) 4.72 (20:50) 0 0 0 0 0
25-12-2019 13.7 (14:40) 6.7 (00:00) 10.2 15 (21:00) 6.11 (14:20) 0.6 0 0 0 0.6

Gráficas

Temp. máximas Temp. mínimas Temp. medias Precipitaciones Rachas de viento máximas Velocidades máximas media en intervalos de 10 minutos

Datos horarios

Fecha y hora oficial Temperatura (ºC) Velocidad del viento (km/h) Dirección del viento Racha (km/h) Dirección de racha Precipitación (mm) Presión (hPa) Tendencia (hPa) Humedad (%)
2020-01-23 23:00:00 -- -- -- -- -- -- -- -- --
2020-01-23 22:00:00 -- -- -- -- -- -- -- -- --
2020-01-23 21:00:00 -- -- -- -- -- -- -- -- --
2020-01-23 20:00:00 -- -- -- -- -- -- -- -- --
2020-01-23 19:00:00 4.4 5 Este 23 Sudeste 0 -- -- 78
2020-01-23 18:00:00 5.8 10 Sudeste 22 Sudeste 0 -- -- 71
2020-01-23 17:00:00 7.1 8 Este 21 Este 0 -- -- 66
2020-01-23 16:00:00 7.2 9 Este 24 Sudeste 0 -- -- 65
2020-01-23 15:00:00 7.4 9 Este 24 Sudeste 0 -- -- 66
2020-01-23 14:00:00 6.8 12 Sudeste 27 Sudeste 0 -- -- 68
2020-01-23 13:00:00 6.4 12 Este 33 Este 0 -- -- 73
2020-01-23 12:00:00 5.4 15 Sudeste 33 Este 0 -- -- 73
2020-01-23 11:00:00 4 10 Sudeste 36 Sudeste 0 -- -- 81
2020-01-23 10:00:00 2.6 15 Sudeste 33 Sudeste 0 -- -- 84
2020-01-23 09:00:00 1.8 17 Sudeste 35 Sudeste 0 -- -- 88
2020-01-23 08:00:00 1.7 17 Sudeste 39 Sudeste 0 -- -- 90
2020-01-23 07:00:00 1.6 18 Sudeste 39 Sudeste 0 -- -- 92
2020-01-23 06:00:00 1.8 21 Sudeste 31 Sudeste 0 -- -- 91
2020-01-23 05:00:00 1.7 16 Este 28 Este 0 -- -- 91
2020-01-23 04:00:00 2.1 15 Sudeste 26 Sudeste 0 -- -- 89
2020-01-23 03:00:00 2.1 16 Sudeste 33 Sudeste 0 -- -- 90
2020-01-23 02:00:00 2.3 17 Sudeste 37 Sudeste 0 -- -- 91
2020-01-23 01:00:00 1.8 15 Este 32 Sudeste 0 -- -- 100
2020-01-23 00:00:00 1.5 10 Este 18 Este 0 -- -- 100
2020-01-22 23:00:00 1.8 5 Este 10 Este 0 -- -- 99
2020-01-22 22:00:00 2.2 6 Este 14 Este 0 -- -- 98
2020-01-22 21:00:00 2.5 6 Este 15 Nordeste 0 -- -- 98
2020-01-22 20:00:00 2.7 8 Este 24 Este 0 -- -- 96
2020-01-22 19:00:00 3 10 Este 24 Este 0 -- -- 95
2020-01-22 18:00:00 3.4 9 Nordeste 21 Nordeste 0 -- -- 92
2020-01-22 17:00:00 4.4 9 Nordeste 21 Este 0 -- -- 89
2020-01-22 16:00:00 5.2 8 Nordeste 24 Este 0 -- -- 87
2020-01-22 15:00:00 5.5 11 Nordeste 25 Nordeste 0 -- -- 85
2020-01-22 14:00:00 5.8 12 Nordeste 32 Nordeste 0 -- -- 86
2020-01-22 13:00:00 6.1 10 Este 32 Este 0 -- -- 85
2020-01-22 12:00:00 5.5 14 Este 39 Este 0 -- -- 90
2020-01-22 11:00:00 4.2 14 Nordeste 48 Este 0 -- -- 94
2020-01-22 10:00:00 3.3 17 Este 44 Nordeste 0 -- -- 97
2020-01-22 09:00:00 2.9 17 Nordeste 41 Nordeste 0 -- -- 97
2020-01-22 08:00:00 3.3 17 Nordeste 39 Nordeste 0 -- -- 95
2020-01-22 07:00:00 3 19 Este 44 Nordeste 0 -- -- 94
2020-01-22 06:00:00 2.7 18 Este 48 Nordeste 0 -- -- 96
2020-01-22 05:00:00 2.6 15 Nordeste 38 Nordeste 0 -- -- 94
2020-01-22 04:00:00 2.2 11 Nordeste 43 Nordeste 0 -- -- 93
2020-01-22 03:00:00 2 17 Nordeste 42 Nordeste 0 -- -- 89
2020-01-22 02:00:00 1.3 14 Nordeste 39 Nordeste 0 -- -- 88
2020-01-22 01:00:00 0.9 16 Nordeste 41 Nordeste 0 -- -- 89
2020-01-22 00:00:00 0.8 15 Este 39 Este 0 -- -- 89
2020-01-21 23:00:00 0.8 15 Este 48 Este 0 -- -- 89
2020-01-21 22:00:00 0.7 15 Este 33 Nordeste 0 -- -- 91
2020-01-21 21:00:00 0.5 12 Nordeste 50 Este 0 -- -- 93
2020-01-21 20:00:00 0.7 17 Nordeste 55 Nordeste 0 -- -- 93
2020-01-21 19:00:00 0.9 19 Nordeste 48 Este 0 -- -- 91
2020-01-21 18:00:00 1.5 19 Nordeste 45 Nordeste 0 -- -- 88
2020-01-21 17:00:00 2.1 15 Nordeste 46 Norte 0 -- -- 84
2020-01-21 16:00:00 2.6 15 Nordeste 44 Este 0 -- -- 82
2020-01-21 15:00:00 3.1 19 Este 46 Nordeste 0 -- -- 79
2020-01-21 14:00:00 2.7 17 Nordeste 53 Nordeste 0 -- -- 80
2020-01-21 13:00:00 2.9 17 Este 50 Este 0 -- -- 79
2020-01-21 12:00:00 2.9 17 Este 39 Este 0 -- -- 76
2020-01-21 11:00:00 2 12 Nordeste 39 Nordeste 0 -- -- 80
2020-01-21 10:00:00 0.4 17 Este 45 Nordeste 0 -- -- 86
2020-01-21 09:00:00 -0.7 10 Nordeste 43 Este 0 -- -- 91
2020-01-21 08:00:00 -0.8 15 Este 37 Este 0 -- -- 93
2020-01-21 07:00:00 -0.6 14 Nordeste 35 Nordeste 0 -- -- 92
2020-01-21 06:00:00 -1.3 15 Este 40 Nordeste 0 -- -- 93
2020-01-21 05:00:00 -1.5 12 Nordeste 32 Norte 0 -- -- 93
2020-01-21 04:00:00 -1.5 13 Nordeste 39 Nordeste 0 -- -- 92
2020-01-21 03:00:00 -1.6 15 Este 39 Nordeste 0 -- -- 91
2020-01-21 02:00:00 -1.8 13 Nordeste 40 Nordeste 0 -- -- 91
2020-01-21 01:00:00 -1.7 13 Nordeste 38 Este 0 -- -- 90
2020-01-21 00:00:00 -1.6 15 Nordeste 39 Este 0 -- -- 89
2020-01-20 23:00:00 -1.7 15 Este 45 Nordeste 0 -- -- 88
2020-01-20 22:00:00 -1.8 18 Este 50 Este 0 -- -- 89
2020-01-20 21:00:00 -1.8 18 Este 46 Nordeste 0 -- -- 86
2020-01-20 20:00:00 -1.8 14 Nordeste 37 Este 0 -- -- 82
2020-01-20 19:00:00 -1.5 13 Nordeste 44 Nordeste 0 -- -- 84
2020-01-20 18:00:00 -0.8 21 Este 59 Nordeste 0 -- -- 81
2020-01-20 17:00:00 -0.2 21 Nordeste 49 Nordeste 0 -- -- 78
2020-01-20 16:00:00 0.3 23 Este 63 Este 0 -- -- 75
2020-01-20 15:00:00 0.8 23 Nordeste 53 Nordeste 0 -- -- 76
2020-01-20 14:00:00 1.3 23 Este 59 Nordeste 0 -- -- 67
2020-01-20 13:00:00 1.7 22 Nordeste 50 Nordeste 0 -- -- 65
2020-01-20 12:00:00 1.2 21 Este 63 Este 0 -- -- 70
2020-01-20 11:00:00 -0.2 27 Este 61 Nordeste 0 -- -- 75
2020-01-20 10:00:00 -0.5 23 Este 50 Este 0 -- -- 75
2020-01-20 09:00:00 -1.5 16 Este 51 Norte 0 -- -- 85
2020-01-20 08:00:00 -1.5 18 Este 48 Nordeste 0 -- -- 87
2020-01-20 07:00:00 -1.3 22 Nordeste 54 Nordeste 0 -- -- 86
2020-01-20 06:00:00 -1.1 17 Este 52 Nordeste 0 -- -- 84
2020-01-20 05:00:00 -1.1 21 Este 55 Nordeste 0 -- -- 85
2020-01-20 04:00:00 -0.6 18 Este 44 Este 0 -- -- 80
2020-01-20 03:00:00 -0.7 19 Este 65 Este 0 -- -- 80
2020-01-20 02:00:00 -0.8 20 Nordeste 51 Nordeste 0 -- -- 81
2020-01-20 01:00:00 -0.4 18 Nordeste 55 Nordeste 0 -- -- 83
2020-01-20 00:00:00 -0.2 21 Nordeste 57 Este 0 -- -- 81
2020-01-19 23:00:00 -0.5 21 Este 53 Nordeste 0 -- -- 79
2020-01-19 22:00:00 -0.7 21 Este 59 Nordeste 0 -- -- 80
2020-01-19 21:00:00 -0.8 20 Nordeste 60 Nordeste 0 -- -- 78
2020-01-19 20:00:00 -0.6 22 Este 55 Este 0 -- -- 79
2020-01-19 19:00:00 -0.2 21 Este 50 Nordeste 0 -- -- 75
2020-01-19 18:00:00 0.5 20 Nordeste 48 Este 0 -- -- 75
2020-01-19 17:00:00 1.3 14 Nordeste 48 Nordeste 0 -- -- 78
2020-01-19 16:00:00 2 14 Este 44 Norte 0 -- -- 74
2020-01-19 15:00:00 2.6 18 Este 46 Nordeste 0 -- -- 72
2020-01-19 14:00:00 3 17 Este 50 Nordeste 0 -- -- 81
2020-01-19 13:00:00 2.9 20 Este 52 Nordeste 0 -- -- 85
2020-01-19 12:00:00 2.9 22 Nordeste 58 Nordeste 0 -- -- 85
2020-01-19 11:00:00 2.1 24 Nordeste 53 Nordeste 0 -- -- 92
2020-01-19 10:00:00 0.8 25 Nordeste 59 Nordeste 0 -- -- 97
2020-01-19 09:00:00 -0.1 26 Nordeste 59 Nordeste 0 -- -- 100
2020-01-19 08:00:00 0.5 28 Nordeste 65 Este 0 -- -- 100
2020-01-19 07:00:00 1.4 21 Nordeste 57 Este 0 -- -- 100
2020-01-19 06:00:00 2 22 Este 52 Nordeste 0.2 -- -- 100
2020-01-19 05:00:00 2.7 19 Nordeste 47 Nordeste 0 -- -- 100
2020-01-19 04:00:00 3.2 13 Nordeste 38 Nordeste 0 -- -- 100
2020-01-19 03:00:00 3.3 10 Nordeste 33 Norte 0.4 -- -- 100
2020-01-19 02:00:00 2.7 16 Oeste 27 Oeste 0.2 -- -- 100
2020-01-19 01:00:00 2.6 15 Oeste 27 Oeste 0.2 -- -- 100
2020-01-19 00:00:00 2.6 8 Noroeste 21 Noroeste 0.6 -- -- 100
2020-01-18 23:00:00 2.6 9 Oeste 22 Oeste 0.2 -- -- 100
2020-01-18 22:00:00 2.1 8 Oeste 17 Oeste 0.2 -- -- 100
2020-01-18 21:00:00 1.1 7 Oeste 21 Oeste 4 -- -- 100
2020-01-18 20:00:00 2.2 14 Noroeste 33 Oeste 2 -- -- 100
2020-01-18 19:00:00 2.4 12 Oeste 30 Oeste 0.6 -- -- 100
2020-01-18 18:00:00 1.9 19 Oeste 50 Oeste 3.6 -- -- 100
2020-01-18 17:00:00 3.2 8 Sudoeste 29 Sur 0 -- -- 100
2020-01-18 16:00:00 3 15 Oeste 51 Oeste 5.8 -- -- 100
2020-01-18 15:00:00 5.7 22 Oeste 66 Sudoeste 6.2 -- -- 100
2020-01-18 14:00:00 7.4 19 Sudoeste 58 Oeste 2.2 -- -- 99
2020-01-18 13:00:00 7.9 14 Sudoeste 50 Sudeste 0 -- -- 95
2020-01-18 12:00:00 8.1 19 Sur 54 Sur 0 -- -- 92
2020-01-18 11:00:00 7.4 19 Sur 46 Sudoeste 0 -- -- 93
2020-01-18 10:00:00 6.6 20 Sur 48 Sudeste 0 -- -- 91
2020-01-18 09:00:00 5.4 22 Sur 42 Sur 0 -- -- 93
2020-01-18 08:00:00 4.6 15 Sur 32 Sur 0 -- -- 93
2020-01-18 07:00:00 3.6 13 Sudeste 28 Sur 0 -- -- 92
2020-01-18 06:00:00 2.9 15 Sudeste 27 Sudeste 0.2 -- -- 92
2020-01-18 05:00:00 2.5 12 Este 27 Este 0 -- -- 86
2020-01-18 04:00:00 3.1 12 Sudeste 22 Sudeste 0 -- -- 78
2020-01-18 03:00:00 4.2 13 Sur 37 Sur 0 -- -- 65
2020-01-18 02:00:00 3.5 13 Sur 27 Sur 0 -- -- 64
2020-01-18 01:00:00 3 6 Sudeste 21 Sudeste 0 -- -- 73
2020-01-18 00:00:00 3.3 5 Sur 19 Sudeste 0 -- -- 64
2020-01-17 23:00:00 2.9 12 Sudeste 21 Sudeste 0 -- -- 71
2020-01-17 22:00:00 2.7 10 Sudeste 17 Sudeste 0 -- -- 72
2020-01-17 21:00:00 2.3 9 Sudeste 20 Sur 0 -- -- 82
2020-01-17 20:00:00 2.1 10 Sur 20 Sur 0 -- -- 85
2020-01-17 19:00:00 2 7 Sur 14 Sur 0 -- -- 89
2020-01-17 18:00:00 2.3 5 Sur 12 Sur 0 -- -- 94
2020-01-17 17:00:00 2.9 2 Sur 14 Sudoeste 0 -- -- 97
2020-01-17 16:00:00 2.9 4 Sur 18 Oeste 0 -- -- 98
2020-01-17 15:00:00 2.5 9 Oeste 26 Oeste 0 -- -- 97
2020-01-17 14:00:00 3.7 9 Sudoeste 26 Sudoeste 0 -- -- 90
2020-01-17 13:00:00 2.5 8 Sur 23 Sudoeste 0 -- -- 97
2020-01-17 12:00:00 2.1 11 Sudoeste 26 Sudoeste 0 -- -- 100
2020-01-17 11:00:00 1.7 10 Sudoeste 23 Sur 0 -- -- 100
2020-01-17 10:00:00 1 10 Sudoeste 27 Sudoeste 0 -- -- 100
2020-01-17 09:00:00 0.9 13 Oeste 31 Oeste 1 -- -- 100
2020-01-17 08:00:00 1.3 11 Sudoeste 29 Oeste 0.4 -- -- 100
2020-01-17 07:00:00 1.4 12 Sudoeste 33 Oeste 0.8 -- -- 100
2020-01-17 06:00:00 2.2 10 Sur 29 Sudoeste 0 -- -- 100
2020-01-17 05:00:00 2.1 12 Sur 32 Oeste 0 -- -- 100
2020-01-17 04:00:00 2.6 13 Sudoeste 39 Oeste 1.4 -- -- 100
2020-01-17 03:00:00 3.1 11 Sudoeste 32 Sur 1.4 -- -- 99
2020-01-17 02:00:00 3.6 12 Sur 35 Sudeste 0.2 -- -- 100
2020-01-17 01:00:00 3.9 13 Sudoeste 42 Oeste 0 -- -- 99
2020-01-17 00:00:00 3.6 17 Sur 52 Sudoeste 0.8 -- -- 99
2020-01-16 23:00:00 4.1 12 Sudoeste 35 Oeste 0 -- -- 100
2020-01-16 22:00:00 3.9 16 Sudoeste 39 Sudoeste 1.2 -- -- 99
2020-01-16 21:00:00 4.9 12 Sudoeste 36 Sudoeste 0.4 -- -- 100
2020-01-16 20:00:00 4.7 11 Sur 33 Sur 2.6 -- -- 100
2020-01-16 19:00:00 3.8 17 Oeste 51 Oeste 6.4 -- -- 100
2020-01-16 18:00:00 5.9 13 Sudoeste 44 Sudoeste 1.8 -- -- 96
2020-01-16 17:00:00 6.3 14 Sur 42 Sur 0.8 -- -- 93
2020-01-16 16:00:00 7.8 19 Sur 57 Sur 0 -- -- 79
2020-01-16 15:00:00 8.7 15 Sur 59 Oeste 0 -- -- 75
2020-01-16 14:00:00 8.8 24 Sur 64 Sudoeste 0 -- -- 80
2020-01-16 13:00:00 9.6 18 Sur 53 Sur 0 -- -- 76
2020-01-16 12:00:00 10.2 21 Sur 51 Sur 0 -- -- 74
2020-01-16 11:00:00 9.2 22 Sur 71 Sur 0 -- -- 79
2020-01-16 10:00:00 8.9 19 Sur 58 Sudoeste 0 -- -- 77
2020-01-16 09:00:00 8.7 24 Sur 55 Sur 0 -- -- 78
2020-01-16 08:00:00 8.8 21 Sur 68 Sudoeste 0 -- -- 83
2020-01-16 07:00:00 8.7 22 Sur 69 Sudoeste 0 -- -- 87
2020-01-16 06:00:00 8.9 14 Sur 53 Sur 0.6 -- -- 88
2020-01-16 05:00:00 9.5 18 Sur 47 Sur 0 -- -- 83
2020-01-16 04:00:00 9.2 21 Sur 38 Sur 0 -- -- 81
2020-01-16 03:00:00 8.7 12 Sudeste 30 Sudeste 0 -- -- 78
2020-01-16 02:00:00 8.6 14 Sur 54 Sur 0 -- -- 78
2020-01-16 01:00:00 8.9 13 Sur 46 Oeste 0 -- -- 77
2020-01-16 00:00:00 9 10 Sur 32 Sudeste 0 -- -- 83
2020-01-15 23:00:00 8.7 11 Sur 38 Sur 0 -- -- 84
2020-01-15 22:00:00 8.1 12 Sur 30 Sur 0 -- -- 85
2020-01-15 21:00:00 7.4 11 Sur 25 Sur 0 -- -- 84
2020-01-15 20:00:00 6.6 12 Sudeste 28 Sudeste 0 -- -- 81
2020-01-15 19:00:00 6.6 13 Sur 30 Sur 0 -- -- 81
2020-01-15 18:00:00 7.2 15 Sur 32 Sur 0 -- -- 77
2020-01-15 17:00:00 7.9 11 Sur 28 Sudoeste 0 -- -- 79
2020-01-15 16:00:00 7.7 13 Sur 35 Sur 0 -- -- 85
2020-01-15 15:00:00 7.6 12 Sur 28 Sudoeste 0.2 -- -- 90
2020-01-15 14:00:00 6.9 8 Sur 29 Sur 0 -- -- 99
2020-01-15 13:00:00 6.2 6 Sur 18 Sur 0.2 -- -- 100
2020-01-15 12:00:00 5.3 8 Sudoeste 32 Sudoeste 0.4 -- -- 100
2020-01-15 11:00:00 5.3 6 Sur 21 Oeste 0 -- -- 100
2020-01-15 10:00:00 5.1 7 Sudoeste 30 Sudoeste 0.4 -- -- 100
2020-01-15 09:00:00 5 11 Sur 37 Sur 4.2 -- -- 99
2020-01-15 08:00:00 5.4 17 Sur 49 Sur 2.4 -- -- 98
2020-01-15 07:00:00 6.3 21 Sur 53 Sur 2.2 -- -- 98
2020-01-15 06:00:00 6.4 28 Sur 60 Sudoeste 2.2 -- -- 95
2020-01-15 05:00:00 6.6 26 Sur 59 Sudoeste 0.6 -- -- 92
2020-01-15 04:00:00 6.6 27 Sur 61 Sur 0.2 -- -- 88
2020-01-15 03:00:00 6.2 21 Sur 52 Sur 0.4 -- -- 96
2020-01-15 02:00:00 6.3 24 Sur 62 Sur 0.4 -- -- 94
2020-01-15 01:00:00 6.1 22 Sur 57 Sudoeste 0.2 -- -- 94
2020-01-15 00:00:00 6.8 22 Sur 55 Sur 0 -- -- 88
2020-01-14 23:00:00 6.7 21 Sur 63 Sudoeste 0 -- -- 82
2020-01-14 22:00:00 6.2 21 Sur 51 Sur 0 -- -- 85
2020-01-14 21:00:00 6.1 21 Sur 49 Sur 0 -- -- 84
2020-01-14 20:00:00 6.3 21 Sur 49 Sur 0 -- -- 83
2020-01-14 19:00:00 6.3 18 Sur 54 Sur 0 -- -- 80
2020-01-14 18:00:00 5.9 22 Sur 41 Sudoeste 0 -- -- 86
2020-01-14 17:00:00 6.1 14 Sur 48 Sur 0 -- -- 87
2020-01-14 16:00:00 6.8 16 Sur 44 Sur 0 -- -- 82
2020-01-14 15:00:00 7.1 13 Sur 46 Sudoeste 0 -- -- 76
2020-01-14 14:00:00 7 17 Sur 52 Sudoeste 0 -- -- 76
2020-01-14 13:00:00 7.2 21 Sur 51 Sur 0 -- -- 75
2020-01-14 12:00:00 6.3 17 Sur 52 Sur 0 -- -- 78
2020-01-14 11:00:00 6.2 19 Sur 50 Sur 0 -- -- 81
2020-01-14 10:00:00 5.5 19 Sur 49 Sudoeste 0 -- -- 83
2020-01-14 09:00:00 5.1 20 Sur 57 Sudoeste 0 -- -- 88
2020-01-14 08:00:00 5.1 19 Sur 51 Sudoeste 0 -- -- 91
2020-01-14 07:00:00 5.3 18 Sur 58 Sudoeste 0 -- -- 90
2020-01-14 06:00:00 5.4 17 Sur 44 Sudeste 0 -- -- 90
2020-01-14 05:00:00 5.3 20 Sur 50 Sur 0 -- -- 89
2020-01-14 04:00:00 5.6 19 Sur 54 Sudoeste 0 -- -- 87
2020-01-14 03:00:00 5.5 14 Sur 44 Oeste 0 -- -- 88
2020-01-14 02:00:00 5.5 19 Sur 51 Sur 0 -- -- 88
2020-01-14 01:00:00 5.2 27 Sur 57 Sur 0 -- -- 89
2020-01-14 00:00:00 5.3 24 Sur 59 Sudoeste 0 -- -- 88
2020-01-13 23:00:00 5.1 27 Sur 59 Sudoeste 0 -- -- 89
2020-01-13 22:00:00 4.7 22 Sur 46 Sudoeste 0 -- -- 89
2020-01-13 21:00:00 4.7 21 Sur 56 Sur 0 -- -- 92
2020-01-13 20:00:00 4.1 21 Sur 57 Sudoeste 0 -- -- 88
2020-01-13 19:00:00 4.7 19 Sur 46 Sudoeste 0 -- -- 80
2020-01-13 18:00:00 5.6 20 Sur 42 Sudoeste 0 -- -- 73
2020-01-13 17:00:00 6.4 18 Sudoeste 42 Sudoeste 0 -- -- 62
2020-01-13 16:00:00 6.5 21 Sur 48 Sur 0 -- -- 54
2020-01-13 15:00:00 7.2 17 Sudoeste 46 Sudoeste 0 -- -- 43
2020-01-13 14:00:00 7.3 19 Sur 45 Sur 0 -- -- 38
2020-01-13 13:00:00 6.8 16 Sur 44 Sur 0 -- -- 49
2020-01-13 12:00:00 6.8 20 Sur 37 Sur 0 -- -- 70
2020-01-13 11:00:00 6.2 18 Sur 36 Sur 0 -- -- 66
2020-01-13 10:00:00 5.6 10 Sur 32 Sur 0 -- -- 63
2020-01-13 09:00:00 5.6 14 Sur 28 Sur 0 -- -- 83
2020-01-13 08:00:00 6 7 Sur 26 Sur 0 -- -- 84
2020-01-13 07:00:00 6.1 10 Sur 23 Sur 0 -- -- 87
2020-01-13 06:00:00 6.3 5 Sur 18 Sudeste 0 -- -- 87
2020-01-13 05:00:00 6.3 7 Sur 15 Sudoeste 0 -- -- 89
2020-01-13 04:00:00 6.5 4 Sur 14 Sur 0 -- -- 87
2020-01-13 03:00:00 6.5 5 Sur 15 Sudoeste 0 -- -- 88
2020-01-13 02:00:00 6 8 Sudoeste 15 Oeste 0 -- -- 89
2020-01-13 01:00:00 5.4 5 Sudoeste 14 Sudoeste 0 -- -- 90
2020-01-13 00:00:00 5 6 Sudoeste 13 Sudoeste 0 -- -- 89
2020-01-12 23:00:00 5.4 9 Sudoeste 16 Sudoeste 0 -- -- 89
2020-01-12 22:00:00 4.9 13 Sudoeste 17 Oeste 0 -- -- 88
2020-01-12 21:00:00 5.7 11 Sudoeste 13 Sudoeste 0 -- -- 91
2020-01-12 20:00:00 5.4 12 Sudoeste 14 Sudoeste 0 -- -- 89
2020-01-12 19:00:00 5.6 11 Oeste 13 Oeste 0 -- -- 83
2020-01-12 18:00:00 7 6 Oeste 9 Sudoeste 0 -- -- 78
2020-01-12 17:00:00 8.9 6 Oeste 13 Oeste 0 -- -- 67
2020-01-12 16:00:00 8.4 8 Oeste 13 Sudoeste 0 -- -- 69
2020-01-12 15:00:00 8.9 7 Oeste 11 Sudoeste 0 -- -- 65
2020-01-12 14:00:00 9.6 2 Este 8 Sudeste 0 -- -- 66
2020-01-12 13:00:00 9.4 4 Este 8 Este 0 -- -- 68
2020-01-12 12:00:00 9.4 4 Este 8 Este 0 -- -- 67
2020-01-12 11:00:00 7.4 4 Este 9 Nordeste 0 -- -- 69
2020-01-12 10:00:00 6 4 Nordeste 10 Nordeste 0 -- -- 66
2020-01-12 09:00:00 5.1 6 Nordeste 10 Nordeste 0 -- -- 73
2020-01-12 08:00:00 2.3 2 Norte 6 Sudeste 0 -- -- 61
2020-01-12 07:00:00 1.9 5 Sudoeste 10 Oeste 0 -- -- 65
2020-01-12 06:00:00 2.7 7 Sudoeste 15 Sudoeste 0 -- -- 63
2020-01-12 05:00:00 3.4 6 Sudoeste 15 Oeste 0 -- -- 64
2020-01-12 04:00:00 3.9 11 Sudoeste 22 Sudoeste 0 -- -- 63
2020-01-12 03:00:00 4.1 10 Sudoeste 19 Sudoeste 0 -- -- 64
2020-01-12 02:00:00 4.3 15 Sudoeste 22 Sudoeste 0 -- -- 64
2020-01-12 01:00:00 3.9 12 Sudoeste 18 Oeste 0 -- -- 66
2020-01-12 00:00:00 3.9 13 Sudoeste 21 Sudoeste 0 -- -- 71
2020-01-11 23:00:00 3.9 14 Sudoeste 25 Sudoeste 0 -- -- 75
2020-01-11 22:00:00 4 17 Sudoeste 24 Sudoeste 0 -- -- 76
2020-01-11 21:00:00 4.3 14 Oeste 22 Sudoeste 0 -- -- 71
2020-01-11 20:00:00 4.3 12 Sudoeste 27 Oeste 0 -- -- 65
2020-01-11 19:00:00 4.6 18 Sudoeste 28 Sudoeste 0 -- -- 65
2020-01-11 18:00:00 5 13 Sudoeste 16 Sudoeste 0 -- -- 74
2020-01-11 17:00:00 6.3 11 Sudoeste 24 Sudoeste 0 -- -- 71
2020-01-11 16:00:00 6.4 15 Oeste 21 Sudoeste 0 -- -- 76
2020-01-11 15:00:00 7.9 4 Oeste 12 Oeste 0 -- -- 69
2020-01-11 14:00:00 7.7 5 Oeste 13 Sudoeste 0 -- -- 63
2020-01-11 13:00:00 6 5 Sudoeste 14 Sudoeste 0 -- -- 62
2020-01-11 12:00:00 6 5 Sudoeste 10 Sudoeste 0 -- -- 63
2020-01-11 11:00:00 6.1 4 Oeste 8 Sudoeste 0 -- -- 62
2020-01-11 10:00:00 3.5 3 Sudoeste 8 Sudoeste 0 -- -- 72
2020-01-11 09:00:00 3.1 6 Sudoeste 8 Sudoeste 0 -- -- 71
2020-01-11 08:00:00 2.4 3 Sur 10 Sudeste 0 -- -- 76
2020-01-11 07:00:00 3.5 8 Sudeste 13 Sudeste 0 -- -- 73
2020-01-11 06:00:00 2.4 8 Sudeste 13 Sudeste 0 -- -- 83
2020-01-11 05:00:00 2.7 8 Sudoeste 12 Sudoeste 0 -- -- 83
2020-01-11 04:00:00 2.8 7 Sudoeste 12 Sudoeste 0 -- -- 82
2020-01-11 03:00:00 2.6 5 Sudoeste 10 Sur 0 -- -- 82
2020-01-11 02:00:00 2.6 6 Sur 9 Sur 0 -- -- 81
2020-01-11 01:00:00 2 6 Sur 11 Sudeste 0 -- -- 89
2020-01-11 00:00:00 3.1 9 Sur 14 Sur 0 -- -- 83
2020-01-10 23:00:00 2.4 11 Sudeste 14 Sudeste 0 -- -- 95
2020-01-10 22:00:00 0.9 4 Este 9 Este 0 -- -- 99
2020-01-10 21:00:00 1.4 4 Este 8 Nordeste 0 -- -- 99
2020-01-10 20:00:00 1.5 3 Este 10 Nordeste 0 -- -- 98
2020-01-10 19:00:00 1.9 6 Nordeste 12 Este 0 -- -- 95
2020-01-10 18:00:00 2.1 5 Este 13 Sudeste 0 -- -- 98
2020-01-10 17:00:00 3 5 Este 14 Nordeste 0 -- -- 99
2020-01-10 16:00:00 3.2 8 Nordeste 19 Nordeste 0 -- -- 100
2020-01-10 15:00:00 3 6 Nordeste 24 Este 0 -- -- 100
2020-01-10 14:00:00 3.4 6 Este 20 Este 0 -- -- 100
2020-01-10 13:00:00 2.6 4 Nordeste 22 Nordeste 0 -- -- 100
2020-01-10 12:00:00 2.4 7 Nordeste 22 Nordeste 0 -- -- 100
2020-01-10 11:00:00 1.9 4 Este 19 Nordeste 0 -- -- 100
2020-01-10 10:00:00 1.7 8 Nordeste 20 Nordeste 0.2 -- -- 100
2020-01-10 09:00:00 1.1 6 Nordeste 18 Nordeste 0 -- -- 100
2020-01-10 08:00:00 0.9 6 Nordeste 19 Nordeste 0 -- -- 100
2020-01-10 07:00:00 0.6 6 Norte 21 Nordeste 0 -- -- 100
2020-01-10 06:00:00 1.2 7 Norte 18 Oeste 0 -- -- 100
2020-01-10 05:00:00 1.4 10 Noroeste 21 Noroeste 0 -- -- 100
2020-01-10 04:00:00 1.3 12 Noroeste 19 Noroeste 0 -- -- 100
2020-01-10 03:00:00 1.4 9 Noroeste 27 Oeste 0 -- -- 100
2020-01-10 02:00:00 1.4 12 Oeste 26 Oeste 0 -- -- 100
2020-01-10 01:00:00 1.5 16 Oeste 36 Oeste 0.4 -- -- 100
2020-01-10 00:00:00 1.8 13 Oeste 28 Oeste 0 -- -- 100
2020-01-09 23:00:00 1.7 13 Oeste 27 Oeste 1 -- -- 100
2020-01-09 22:00:00 1.8 11 Oeste 27 Sudoeste 0 -- -- 100
2020-01-09 21:00:00 2 14 Oeste 29 Oeste 0.2 -- -- 100
2020-01-09 20:00:00 2.4 17 Oeste 30 Oeste 0 -- -- 100
2020-01-09 19:00:00 2.9 12 Oeste 28 Oeste 0 -- -- 100
2020-01-09 18:00:00 3.1 6 Oeste 31 Sudoeste 0 -- -- 100
2020-01-09 17:00:00 3.4 13 Oeste 36 Sudoeste 0.2 -- -- 100
2020-01-09 16:00:00 4.4 19 Oeste 55 Oeste 0.6 -- -- 100
2020-01-09 15:00:00 5.8 22 Oeste 61 Oeste 3.6 -- -- 99
2020-01-09 14:00:00 8.3 20 Sudoeste 63 Sur 0 -- -- 94
2020-01-09 13:00:00 8.9 18 Sudoeste 49 Sudoeste 0 -- -- 96
2020-01-09 12:00:00 8.9 15 Sur 41 Oeste 0 -- -- 97
2020-01-09 11:00:00 8.2 13 Sur 43 Sudoeste 0 -- -- 100
2020-01-09 10:00:00 8.1 13 Sur 37 Sudoeste 0 -- -- 100
2020-01-09 09:00:00 7.8 12 Sudoeste 39 Oeste 0 -- -- 100
2020-01-09 08:00:00 7.8 13 Sudoeste 34 Oeste 0 -- -- 100
2020-01-09 07:00:00 8.2 15 Oeste 39 Oeste 0 -- -- 100
2020-01-09 06:00:00 8.3 9 Sur 33 Oeste 0 -- -- 100
2020-01-09 05:00:00 8.5 7 Sudoeste 24 Sudoeste 0 -- -- 99
2020-01-09 04:00:00 8.4 5 Sudoeste 20 Sur 0 -- -- 100
2020-01-09 03:00:00 8.1 4 Sudeste 18 Oeste 0 -- -- 100
2020-01-09 02:00:00 8.2 5 Sur 16 Sur 0 -- -- 99
2020-01-09 01:00:00 8.5 6 Sur 20 Sudoeste 0 -- -- 99
2020-01-09 00:00:00 8.6 5 Sudoeste 16 Sur 0 -- -- 100
2020-01-08 23:00:00 8.3 3 Sur 14 Sudoeste 0 -- -- 99
2020-01-08 22:00:00 8.2 5 Sudoeste 10 Sudoeste 0 -- -- 95
2020-01-08 21:00:00 8.7 4 Sur 13 Sudoeste 0 -- -- 95
2020-01-08 20:00:00 8.5 8 Oeste 15 Oeste 0 -- -- 95
2020-01-08 19:00:00 8.7 9 Sudoeste 16 Sudoeste 0 -- -- 95
2020-01-08 18:00:00 8.5 12 Oeste 19 Oeste 0 -- -- 90
2020-01-08 17:00:00 9.9 14 Oeste 21 Oeste 0 -- -- 89
2020-01-08 16:00:00 10.6 12 Oeste 18 Oeste 0 -- -- 84
2020-01-08 15:00:00 10.9 12 Oeste 18 Oeste 0 -- -- 77
2020-01-08 14:00:00 11.9 7 Sudoeste 13 Oeste 0 -- -- 77
2020-01-08 13:00:00 11.1 5 Sudoeste 10 Sudoeste 0 -- -- 83
2020-01-08 12:00:00 10.1 4 Sudoeste 10 Oeste 0 -- -- 84
2020-01-08 11:00:00 9.9 2 Sudoeste 6 Sudoeste 0 -- -- 93
2020-01-08 10:00:00 8.4 7 Sur 10 Sur 0 -- -- 97
2020-01-08 09:00:00 8 4 Sudoeste 8 Sudoeste 0 -- -- 96
2020-01-08 08:00:00 7.8 8 Sudoeste 15 Oeste 0 -- -- 91
2020-01-08 07:00:00 7.9 9 Oeste 12 Oeste 0 -- -- 74
2020-01-08 06:00:00 7.6 6 Sudoeste 12 Oeste 0 -- -- 87
2020-01-08 05:00:00 7 11 Oeste 12 Oeste 0 -- -- 61
2020-01-08 04:00:00 8 6 Oeste 8 Oeste 0 -- -- 74
2020-01-08 03:00:00 6.9 5 Oeste 9 Sudoeste 0 -- -- 71
2020-01-08 02:00:00 6.7 9 Oeste 16 Sudoeste 0 -- -- 55
2020-01-08 01:00:00 7.6 12 Sudoeste 15 Sudoeste 0 -- -- 51
2020-01-08 00:00:00 8.1 11 Sudoeste 14 Sudoeste 0 -- -- 46
2020-01-07 23:00:00 7.7 11 Oeste 14 Sudoeste 0 -- -- 48
2020-01-07 22:00:00 7.7 10 Sudoeste 13 Sudoeste 0 -- -- 41
2020-01-07 21:00:00 7.2 10 Sudoeste 14 Sudoeste 0 -- -- 42
2020-01-07 20:00:00 7.7 11 Sudoeste 18 Oeste 0 -- -- 29
2020-01-07 19:00:00 7.8 14 Sudoeste 18 Sudoeste 0 -- -- 36
2020-01-07 18:00:00 8.9 10 Sudoeste 21 Sudoeste 0 -- -- 36
2020-01-07 17:00:00 10.4 10 Oeste 13 Sudoeste 0 -- -- 40
2020-01-07 16:00:00 11.2 8 Oeste 16 Oeste 0 -- -- 36
2020-01-07 15:00:00 11.5 10 Sudoeste 18 Sudoeste 0 -- -- 32
2020-01-07 14:00:00 12 9 Sudoeste 15 Sudoeste 0 -- -- 31
2020-01-07 13:00:00 13.2 4 Oeste 8 Oeste 0 -- -- 29
2020-01-07 12:00:00 13.2 0 Calma 6 Sudoeste 0 -- -- 24
2020-01-07 11:00:00 10.7 2 Sudoeste 5 Sur 0 -- -- 24
2020-01-07 10:00:00 9 4 Sur 8 Sudeste 0 -- -- 27
2020-01-07 09:00:00 7.3 6 Oeste 12 Sur 0 -- -- 26
2020-01-07 08:00:00 8.1 9 Sur 12 Sur 0 -- -- 25
2020-01-07 07:00:00 7.7 7 Sudoeste 18 Sur 0 -- -- 26
2020-01-07 06:00:00 9.2 12 Sur 18 Sur 0 -- -- 25
2020-01-07 05:00:00 9.2 9 Sur 15 Sur 0 -- -- 23
2020-01-07 04:00:00 6.2 0 Calma 6 Sudoeste 0 -- -- 29
2020-01-07 03:00:00 7.2 7 Oeste 13 Sudeste 0 -- -- 26
2020-01-07 02:00:00 7.4 9 Sudeste 13 Sudeste 0 -- -- 22
2020-01-07 01:00:00 5.5 6 Sur 9 Sur 0 -- -- 37
2020-01-07 00:00:00 6.3 8 Sur 12 Sudeste 0 -- -- 36
2020-01-06 23:00:00 4 0 Calma 8 Sur 0 -- -- 51
2020-01-06 22:00:00 3 3 Sudeste 8 Oeste 0 -- -- 66
2020-01-06 21:00:00 4.4 5 Sudoeste 9 Sudeste 0 -- -- 51
2020-01-06 20:00:00 3.5 3 Sur 8 Sur 0 -- -- 64
2020-01-06 19:00:00 4 2 Sur 23 Oeste 0 -- -- 64
2020-01-06 18:00:00 4.9 13 Oeste 20 Sudoeste 0 -- -- 76
2020-01-06 17:00:00 7.1 12 Sudoeste 20 Sudoeste 0 -- -- 62
2020-01-06 16:00:00 9.4 6 Sudoeste 18 Sudoeste 0 -- -- 36
2020-01-06 15:00:00 6.5 6 Sudeste 19 Oeste 0 -- -- 54
2020-01-06 14:00:00 4.5 12 Oeste 22 Oeste 0 -- -- 70
2020-01-06 13:00:00 5.1 12 Oeste 20 Oeste 0 -- -- 66
2020-01-06 12:00:00 7.4 5 Sur 24 Sudoeste 0 -- -- 42
2020-01-06 11:00:00 6.6 12 Sudoeste 27 Sudoeste 0 -- -- 48
2020-01-06 10:00:00 6.8 8 Sudoeste 23 Oeste 0 -- -- 42